Terminal Aerodrome Forecast
Issued by NWS

Home | Current Version | Previous Version | Text Only | Print | Product List | Glossary On
Versions: 1 2 3 4 5 6 7 8 9 10 11 12 13 14 15
000
FTUS42 KTAE 290200 AAB
TAFDHN
TAF AMD
KDHN 290241Z 2903/2924 20005KT P6SM BKN009 BKN013 OVC100
     FM291000 30003KT 1SM -SHRA BR BKN003 OVC009
     FM291600 32006KT P6SM BKN020
      AMD NOT SKED 2903/2913=

USA.gov is the U.S. government's official web portal to all federal, state and local government web resources and services.